createdAt,value
2023-01-05T00:00:09.366Z,13.56
2023-01-05T00:04:12.601Z,13.63
2023-01-05T00:08:17.945Z,13.72
2023-01-05T00:12:38.321Z,13.82
2023-01-05T00:16:59.129Z,13.88
2023-01-05T00:21:21.501Z,13.99
2023-01-05T00:25:28.366Z,14.10
2023-01-05T00:29:31.497Z,14.13
2023-01-05T00:33:34.665Z,14.20
2023-01-05T00:37:38.933Z,14.27
2023-01-05T00:41:43.666Z,14.29
2023-01-05T00:45:46.941Z,14.27
2023-01-05T00:49:49.902Z,14.24
2023-01-05T00:53:54.534Z,14.24
2023-01-05T00:57:59.056Z,14.23
2023-01-05T01:02:02.426Z,14.24
2023-01-05T01:06:05.886Z,14.14
2023-01-05T01:10:10.563Z,14.15
2023-01-05T01:14:15.133Z,14.12
2023-01-05T01:18:18.358Z,14.09
2023-01-05T01:22:21.277Z,14.12
2023-01-05T01:26:24.425Z,14.07
2023-01-05T01:30:29.015Z,14.07
2023-01-05T01:34:32.259Z,14.05
2023-01-05T01:38:36.006Z,14.11
2023-01-05T01:42:39.255Z,14.14
2023-01-05T01:46:44.001Z,14.13
2023-01-05T01:50:52.719Z,14.11
2023-01-05T01:54:56.836Z,14.16
2023-01-05T01:59:00.593Z,14.21
2023-01-05T02:03:06.530Z,14.16
2023-01-05T02:07:13.609Z,14.14
2023-01-05T02:11:34.038Z,14.10
2023-01-05T02:15:46.183Z,14.05
2023-01-05T02:20:28.171Z,14.00
2023-01-05T02:24:52.304Z,14.00
2023-01-05T02:29:25.780Z,14.08
2023-01-05T02:33:55.389Z,14.11
2023-01-05T02:38:06.878Z,14.14
2023-01-05T02:42:14.677Z,14.14
2023-01-05T02:46:17.815Z,14.07
2023-01-05T02:50:30.100Z,14.03
2023-01-05T02:54:39.759Z,14.03
2023-01-05T02:58:45.937Z,14.03
2023-01-05T03:02:51.727Z,14.10
2023-01-05T03:07:01.253Z,14.18
2023-01-05T03:11:25.058Z,14.21
2023-01-05T03:15:31.719Z,14.20
2023-01-05T03:19:40.654Z,14.20
2023-01-05T03:24:02.667Z,14.20
2023-01-05T03:28:27.771Z,14.13
2023-01-05T03:32:51.610Z,14.07
2023-01-05T03:36:59.678Z,14.04
2023-01-05T03:41:09.418Z,14.08
2023-01-05T03:45:13.494Z,14.12
2023-01-05T03:49:18.031Z,14.14
2023-01-05T03:53:21.021Z,14.26
2023-01-05T03:57:25.732Z,14.34
2023-01-05T04:01:29.122Z,14.36
2023-01-05T04:05:32.268Z,14.39
2023-01-05T04:09:35.631Z,14.39
2023-01-05T04:13:40.159Z,14.38
2023-01-05T04:17:43.401Z,14.35
2023-01-05T04:21:46.723Z,14.34
2023-01-05T04:25:49.755Z,14.35
2023-01-05T04:29:54.510Z,14.38
2023-01-05T04:33:57.607Z,14.34
2023-01-05T04:38:00.739Z,14.34
2023-01-05T04:42:03.898Z,14.30
2023-01-05T04:46:09.385Z,14.31
2023-01-05T04:50:12.914Z,14.33
2023-01-05T04:54:16.046Z,14.35
2023-01-05T04:58:19.633Z,14.34
2023-01-05T05:02:24.457Z,14.35
2023-01-05T05:06:27.869Z,14.36
2023-01-05T05:10:31.269Z,14.42
2023-01-05T05:14:34.454Z,14.51
2023-01-05T05:18:38.757Z,14.61
2023-01-05T05:22:41.951Z,14.65
2023-01-05T05:26:45.400Z,14.70
2023-01-05T05:30:49.908Z,14.72
2023-01-05T05:34:54.409Z,14.69
2023-01-05T05:38:59.043Z,14.73
2023-01-05T05:43:02.504Z,14.69
2023-01-05T05:47:05.842Z,14.64
2023-01-05T05:51:10.412Z,14.57
2023-01-05T05:55:13.697Z,14.46
2023-01-05T05:59:17.031Z,14.35
2023-01-05T06:03:19.999Z,14.28
2023-01-05T06:07:26.788Z,14.25
2023-01-05T06:11:30.027Z,14.17
2023-01-05T06:15:34.268Z,14.13
2023-01-05T06:19:37.331Z,14.13
2023-01-05T06:23:42.003Z,14.09
2023-01-05T06:27:45.140Z,14.14
2023-01-05T06:31:50.082Z,14.11
2023-01-05T06:35:53.407Z,14.13
2023-01-05T06:39:57.762Z,14.13
2023-01-05T06:44:00.909Z,14.19
2023-01-05T06:48:04.046Z,14.20
2023-01-05T06:52:10.868Z,14.21
2023-01-05T06:56:20.655Z,14.30
2023-01-05T07:00:24.349Z,14.31
2023-01-05T07:04:27.911Z,14.35
2023-01-05T07:08:31.185Z,14.42
2023-01-05T07:12:37.708Z,14.46
2023-01-05T07:16:40.978Z,14.51
2023-01-05T07:20:44.103Z,14.64
2023-01-05T07:24:47.176Z,14.74
2023-01-05T07:28:51.656Z,14.84
2023-01-05T07:32:58.685Z,14.89
2023-01-05T07:37:03.594Z,14.96
2023-01-05T07:41:06.918Z,14.95
2023-01-05T07:45:12.696Z,15.06
2023-01-05T07:49:16.692Z,15.06
2023-01-05T07:53:20.134Z,15.10
2023-01-05T07:57:23.248Z,15.13
2023-01-05T08:01:27.717Z,15.16
2023-01-05T08:05:34.509Z,15.20
2023-01-05T08:09:55.298Z,15.23
2023-01-05T08:14:01.117Z,15.18
2023-01-05T08:18:05.555Z,15.14
2023-01-05T08:22:08.618Z,15.15
2023-01-05T08:26:14.486Z,15.15
2023-01-05T08:30:17.789Z,15.09
2023-01-05T08:34:22.308Z,15.13
2023-01-05T08:38:25.613Z,15.12
2023-01-05T08:42:28.749Z,15.07
2023-01-05T08:46:33.898Z,15.09
2023-01-05T08:50:38.816Z,15.07
2023-01-05T08:54:42.105Z,15.06
2023-01-05T08:58:45.664Z,15.07
2023-01-05T09:02:49.203Z,15.03
2023-01-05T09:06:54.094Z,15.08
2023-01-05T09:10:58.085Z,15.07
2023-01-05T09:15:01.524Z,15.02
2023-01-05T09:19:04.928Z,14.98
2023-01-05T09:23:09.553Z,14.93
2023-01-05T09:27:12.720Z,14.93
2023-01-05T09:31:18.376Z,14.88
2023-01-05T09:35:22.669Z,14.81
2023-01-05T09:39:27.379Z,14.77
2023-01-05T09:43:39.804Z,14.69
2023-01-05T09:47:46.906Z,14.61
2023-01-05T09:51:55.522Z,14.52
2023-01-05T09:56:01.386Z,14.43
2023-01-05T10:00:08.588Z,14.29
2023-01-05T10:04:16.509Z,14.18
2023-01-05T10:08:26.438Z,14.08
2023-01-05T10:13:01.280Z,13.96
2023-01-05T10:17:38.993Z,13.86
2023-01-05T10:21:37.683Z,13.84
2023-01-05T10:25:46.225Z,13.88
2023-01-05T10:29:54.796Z,13.90
2023-01-05T10:34:11.501Z,13.92
2023-01-05T10:38:29.321Z,13.98
2023-01-05T10:42:47.745Z,14.01
2023-01-05T10:46:53.156Z,14.03
2023-01-05T10:50:57.179Z,14.04
2023-01-05T10:55:01.867Z,13.98
2023-01-05T10:59:10.599Z,13.97
2023-01-05T11:03:18.290Z,13.94
2023-01-05T11:07:21.553Z,13.90
2023-01-05T11:11:27.312Z,13.85
2023-01-05T11:15:32.556Z,13.74
2023-01-05T11:19:42.489Z,13.64
2023-01-05T11:23:49.468Z,13.52
2023-01-05T11:28:12.598Z,13.35
2023-01-05T11:32:16.752Z,13.23
2023-01-05T11:36:21.536Z,13.19
2023-01-05T11:40:28.873Z,13.17
2023-01-05T11:44:33.600Z,13.17
2023-01-05T11:48:37.408Z,13.22
2023-01-05T11:52:44.143Z,13.27
2023-01-05T11:56:48.925Z,13.33
2023-01-05T12:01:08.942Z,13.42
2023-01-05T12:05:24.619Z,13.46
2023-01-05T12:09:35.514Z,13.51
2023-01-05T12:13:55.843Z,13.52
2023-01-05T12:18:15.217Z,13.54
2023-01-05T12:22:39.308Z,13.51
2023-01-05T12:26:51.836Z,13.50
2023-01-05T12:33:35.497Z,13.49
2023-01-05T12:35:47.730Z,13.50
2023-01-05T12:40:23.261Z,13.47
2023-01-05T12:44:56.119Z,13.42
2023-01-05T12:49:03.049Z,13.38
2023-01-05T12:53:21.253Z,13.36
2023-01-05T12:57:34.525Z,13.36
2023-01-05T13:01:44.449Z,13.35
2023-01-05T13:05:55.371Z,13.36
2023-01-05T13:10:03.437Z,13.32
2023-01-05T13:14:12.115Z,13.29
2023-01-05T13:18:20.013Z,13.32
2023-01-05T13:22:25.389Z,13.31
2023-01-05T13:26:37.449Z,13.29
2023-01-05T13:30:53.465Z,13.30
2023-01-05T13:35:36.093Z,13.31
2023-01-05T13:39:57.413Z,13.30
2023-01-05T13:44:41.545Z,13.27
2023-01-05T13:49:05.003Z,13.24
2023-01-05T13:53:16.205Z,13.16
2023-01-05T13:57:23.137Z,13.16
2023-01-05T14:01:38.331Z,13.17
2023-01-05T14:05:50.820Z,13.15
2023-01-05T14:09:58.222Z,13.15
2023-01-05T14:14:05.303Z,13.14
2023-01-05T14:18:09.474Z,13.13
2023-01-05T14:22:39.753Z,13.13
2023-01-05T14:27:05.798Z,13.12
2023-01-05T14:31:44.118Z,13.13
2023-01-05T14:35:48.454Z,13.12
2023-01-05T14:39:57.129Z,13.12
2023-01-05T14:44:22.420Z,13.13
2023-01-05T14:48:32.515Z,13.12
2023-01-05T14:52:57.585Z,13.13
2023-01-05T14:57:38.051Z,13.13
2023-01-05T15:01:51.863Z,13.17
2023-01-05T15:06:01.400Z,13.22
2023-01-05T15:10:26.180Z,13.21
2023-01-05T15:14:56.595Z,13.20
2023-01-05T15:19:43.298Z,13.20
2023-01-05T15:24:16.133Z,13.18
2023-01-05T15:28:42.062Z,13.15
2023-01-05T15:32:49.554Z,13.14
2023-01-05T15:37:05.419Z,13.13
2023-01-05T15:41:12.388Z,13.08
2023-01-05T15:45:20.097Z,13.09
2023-01-05T15:49:30.574Z,13.08
2023-01-05T15:53:38.618Z,13.05
2023-01-05T15:57:42.955Z,13.04
2023-01-05T16:01:46.511Z,13.01
2023-01-05T16:05:50.285Z,13.02
2023-01-05T16:09:55.047Z,12.97
2023-01-05T16:14:05.027Z,12.96
2023-01-05T16:18:11.929Z,12.94
2023-01-05T16:22:20.295Z,12.88
2023-01-05T16:26:28.588Z,12.87
2023-01-05T16:30:35.551Z,12.80
2023-01-05T16:34:38.713Z,12.75
2023-01-05T16:38:43.692Z,12.71
2023-01-05T16:42:50.828Z,12.73
2023-01-05T16:47:07.975Z,12.71
2023-01-05T16:51:14.129Z,12.64
2023-01-05T16:55:29.217Z,12.56
2023-01-05T17:04:15.872Z,12.33
2023-01-05T17:08:22.519Z,12.30
2023-01-05T17:12:25.697Z,12.20
2023-01-05T17:16:34.900Z,12.16
2023-01-05T17:20:42.000Z,12.10
2023-01-05T17:24:46.407Z,12.00
2023-01-05T17:28:50.900Z,11.92
2023-01-05T17:33:00.212Z,11.87
2023-01-05T17:37:03.704Z,11.78
2023-01-05T17:41:07.382Z,11.67
2023-01-05T17:45:12.654Z,11.54
2023-01-05T17:49:22.787Z,11.47
2023-01-05T17:53:25.992Z,11.41
2023-01-05T17:57:30.087Z,11.38
2023-01-05T18:01:34.358Z,11.30
2023-01-05T18:05:39.196Z,11.25
2023-01-05T18:09:42.378Z,11.24
2023-01-05T18:13:45.949Z,11.29
2023-01-05T18:17:50.489Z,11.28
2023-01-05T18:21:56.751Z,11.27
2023-01-05T18:26:07.869Z,11.22
2023-01-05T18:30:13.269Z,11.18
2023-01-05T18:34:16.512Z,11.10
2023-01-05T18:38:21.510Z,11.06
2023-01-05T18:42:25.043Z,11.01
2023-01-05T18:46:30.241Z,10.97
2023-01-05T18:50:35.345Z,10.93
2023-01-05T18:54:43.091Z,10.91
2023-01-05T18:58:46.282Z,10.90
2023-01-05T19:02:50.019Z,10.91
2023-01-05T19:06:53.249Z,10.97
2023-01-05T19:10:57.688Z,11.03
2023-01-05T19:15:01.319Z,11.09
2023-01-05T19:19:08.720Z,11.21
2023-01-05T19:23:12.213Z,11.30
2023-01-05T19:27:19.135Z,11.42
2023-01-05T19:31:26.192Z,11.50
2023-01-05T19:35:31.444Z,11.58
2023-01-05T19:39:35.144Z,11.64
2023-01-05T19:43:41.360Z,11.72
2023-01-05T19:47:44.504Z,11.77
2023-01-05T19:51:48.374Z,11.79
2023-01-05T19:55:52.851Z,11.75
2023-01-05T20:00:14.573Z,11.72
2023-01-05T20:04:20.005Z,11.61
2023-01-05T20:08:23.920Z,11.52
2023-01-05T20:12:27.274Z,11.42
2023-01-05T20:16:34.466Z,11.33
2023-01-05T20:20:37.794Z,11.25
2023-01-05T20:24:44.097Z,11.18
2023-01-05T20:28:50.585Z,11.12
2023-01-05T20:33:22.177Z,11.06
2023-01-05T20:37:27.357Z,10.99
2023-01-05T20:41:32.901Z,10.97
2023-01-05T20:45:36.155Z,10.95
2023-01-05T20:49:41.823Z,10.94
2023-01-05T20:53:51.923Z,10.95
2023-01-05T20:57:56.953Z,10.95
2023-01-05T21:02:01.589Z,10.94
2023-01-05T21:06:06.918Z,10.94
2023-01-05T21:10:13.033Z,10.90
2023-01-05T21:14:19.858Z,10.87
2023-01-05T21:18:27.385Z,10.88
2023-01-05T21:22:32.092Z,10.88
2023-01-05T21:26:36.376Z,10.88
2023-01-05T21:30:39.829Z,10.90
2023-01-05T21:34:45.453Z,10.94
2023-01-05T21:39:01.711Z,10.95
2023-01-05T21:43:06.770Z,10.90
2023-01-05T21:47:10.173Z,10.90
2023-01-05T21:51:30.773Z,10.92
2023-01-05T21:55:59.206Z,10.92
2023-01-05T22:00:03.395Z,10.92
2023-01-05T22:04:07.548Z,10.94
2023-01-05T22:08:11.008Z,10.98
2023-01-05T22:12:15.657Z,11.02
2023-01-05T22:16:18.915Z,11.02
2023-01-05T22:20:24.297Z,11.00
2023-01-05T22:24:27.197Z,10.97
2023-01-05T22:28:32.078Z,10.93
2023-01-05T22:32:36.368Z,10.86
2023-01-05T22:36:39.563Z,10.79
2023-01-05T22:40:42.797Z,10.74
2023-01-05T22:44:47.403Z,10.68
2023-01-05T22:48:52.311Z,10.61
2023-01-05T22:52:55.476Z,10.59
2023-01-05T22:56:58.667Z,10.53
2023-01-05T23:01:10.102Z,10.52
2023-01-05T23:05:14.282Z,10.50
2023-01-05T23:09:18.522Z,10.46
2023-01-05T23:13:23.192Z,10.40
2023-01-05T23:17:28.297Z,10.33
2023-01-05T23:21:31.940Z,10.29
2023-01-05T23:25:35.088Z,10.25
2023-01-05T23:29:38.751Z,10.17
2023-01-05T23:33:45.233Z,10.15
2023-01-05T23:37:48.369Z,10.08
2023-01-05T23:41:53.925Z,10.03
2023-01-05T23:46:02.029Z,9.98
2023-01-05T23:50:08.171Z,9.91
2023-01-05T23:54:11.350Z,9.85
2023-01-05T23:58:15.347Z,9.83
